Time;durP1;ratioP1;P1;durP2;ratioP2;P2;SDS_P1;SDS_P2;PMS_P1;PMS_P2;Temp;Humidity;BMP_temperature;BMP_pressure;BME280_temperature;BME280_humidity;BME280_pressure;Samples;Min_cycle;Max_cycle;Signal;HPM_P1;HPM_P2
2023/06/24 00:01:13;;;;;;;11.02;10.02;;;;;;;18.60;100.00;102348.56;5046618;28;20492;-64
2023/06/24 00:03:38;;;;;;;11.93;10.93;;;;;;;18.59;100.00;102346.00;5046681;28;20050;-65
2023/06/24 00:06:04;;;;;;;12.25;11.25;;;;;;;18.52;100.00;102346.16;5045446;28;20062;-65
2023/06/24 00:08:34;;;;;;;11.85;10.85;;;;;;;18.49;100.00;102349.41;5029426;28;20017;-64
2023/06/24 00:11:01;;;;;;;12.40;11.30;;;;;;;18.46;100.00;102347.16;5047104;28;20418;-65
2023/06/24 00:13:26;;;;;;;12.87;11.77;;;;;;;18.45;100.00;102347.38;5047748;28;20021;-65
2023/06/24 00:15:51;;;;;;;12.77;11.57;;;;;;;18.47;100.00;102353.56;5030089;28;20036;-65
2023/06/24 00:18:17;;;;;;;13.27;12.07;;;;;;;18.48;100.00;102347.75;5046024;28;20512;-65
2023/06/24 00:20:43;;;;;;;13.13;11.93;;;;;;;18.46;100.00;102355.50;5045511;28;20044;-65
2023/06/24 00:23:08;;;;;;;12.88;11.77;;;;;;;18.46;100.00;102360.22;5046829;28;20051;-64
2023/06/24 00:25:34;;;;;;;12.27;11.18;;;;;;;18.47;100.00;102354.41;5046876;28;20078;-65
2023/06/24 00:27:59;;;;;;;11.68;10.68;;;;;;;18.46;100.00;102355.50;5046710;28;20033;-65
2023/06/24 00:30:27;;;;;;;12.68;11.48;;;;;;;18.43;100.00;102355.97;5046713;28;20029;-65
2023/06/24 00:32:52;;;;;;;12.40;11.30;;;;;;;18.37;100.00;102366.16;5046020;28;20132;-65
2023/06/24 00:35:18;;;;;;;13.20;12.02;;;;;;;18.36;100.00;102356.13;5045806;28;20127;-65
2023/06/24 00:37:45;;;;;;;11.68;10.57;;;;;;;18.42;100.00;102362.63;5045477;28;20068;-65
2023/06/24 00:40:11;;;;;;;12.33;11.23;;;;;;;18.40;100.00;102367.63;5046449;28;20364;-65
2023/06/24 00:42:37;;;;;;;10.70;9.70;;;;;;;18.38;100.00;102369.78;5046881;28;20286;-65
2023/06/24 00:45:04;;;;;;;10.98;9.98;;;;;;;18.35;100.00;102361.94;5044809;28;20035;-65
2023/06/24 00:47:31;;;;;;;9.63;8.73;;;;;;;18.32;100.00;102362.44;5046703;28;20033;-65
2023/06/24 00:49:57;;;;;;;8.70;7.65;;;;;;;18.29;100.00;102360.13;5045599;28;20025;-65
2023/06/24 00:52:23;;;;;;;8.80;7.90;;;;;;;18.26;100.00;102368.97;5046479;28;20035;-65
2023/06/24 00:54:49;;;;;;;9.82;8.88;;;;;;;18.21;100.00;102366.94;5046460;28;20033;-65
2023/06/24 00:57:15;;;;;;;8.77;7.97;;;;;;;18.14;100.00;102364.25;5046117;28;20032;-65
2023/06/24 00:59:44;;;;;;;8.82;7.93;;;;;;;18.05;100.00;102370.47;5045233;28;20125;-65
2023/06/24 01:02:10;;;;;;;8.20;7.40;;;;;;;17.96;100.00;102361.66;5046885;28;20439;-65
2023/06/24 01:04:36;;;;;;;8.48;7.68;;;;;;;17.89;100.00;102360.91;5044548;28;20029;-65
2023/06/24 01:07:02;;;;;;;8.70;7.80;;;;;;;17.81;100.00;102358.50;5045848;28;20472;-65
2023/06/24 01:09:27;;;;;;;8.77;7.88;;;;;;;17.75;100.00;102356.72;5046469;28;20056;-65
2023/06/24 01:11:53;;;;;;;8.75;7.75;;;;;;;17.66;100.00;102352.56;5060820;28;20039;-65
2023/06/24 01:14:19;;;;;;;8.48;7.60;;;;;;;17.59;100.00;102347.97;5045113;28;20353;-65
2023/06/24 01:17:09;;;;;;;7.78;6.97;;;;;;;17.60;100.00;102341.31;5045847;28;20590;-65
2023/06/24 01:19:43;;;;;;;7.88;7.07;;;;;;;17.55;100.00;102349.53;5046366;28;20028;-65
2023/06/24 01:22:46;;;;;;;7.25;6.05;;;;;;;17.54;100.00;102339.53;5045474;28;20399;-65
2023/06/24 01:25:49;;;;;;;7.30;6.43;;;;;;;17.46;100.00;102348.19;5033639;28;20036;-65
2023/06/24 01:28:29;;;;;;;7.82;6.93;;;;;;;17.41;100.00;102344.44;5038745;28;20530;-65
2023/06/24 01:31:19;;;;;;;8.50;7.60;;;;;;;17.31;100.00;102342.25;5043791;28;20475;-65
2023/06/24 01:33:55;;;;;;;9.27;8.38;;;;;;;17.26;100.00;102340.19;5026532;28;20086;-65
2023/06/24 01:36:24;;;;;;;9.02;8.13;;;;;;;17.27;100.00;102343.81;5044604;28;20525;-65
2023/06/24 01:38:58;;;;;;;9.73;8.82;;;;;;;17.24;100.00;102339.59;5046074;28;20039;-65
2023/06/24 01:41:26;;;;;;;9.50;8.40;;;;;;;17.15;100.00;102341.03;5043514;28;20029;-65
2023/06/24 01:43:53;;;;;;;9.55;8.70;;;;;;;17.17;100.00;102330.53;5044694;28;20047;-65
2023/06/24 01:46:24;;;;;;;9.52;8.52;;;;;;;17.12;100.00;102336.78;5045170;28;20083;-65
2023/06/24 01:48:54;;;;;;;9.80;8.80;;;;;;;17.05;100.00;102329.66;5044826;28;20037;-65
2023/06/24 01:51:20;;;;;;;8.70;7.80;;;;;;;16.96;100.00;102331.09;5033888;28;20036;-65
2023/06/24 01:53:53;;;;;;;9.32;8.00;;;;;;;16.89;100.00;102336.75;5054879;28;20051;-64
2023/06/24 01:56:21;;;;;;;8.70;7.80;;;;;;;16.84;100.00;102331.06;5046347;28;20063;-65
2023/06/24 01:58:50;;;;;;;8.88;8.07;;;;;;;16.84;100.00;102331.06;5049675;28;20021;-65
2023/06/24 02:01:17;;;;;;;8.35;7.53;;;;;;;16.85;100.00;102330.81;5049527;28;20032;-65
2023/06/24 02:03:43;;;;;;;8.55;7.63;;;;;;;16.86;100.00;102331.66;5049093;28;20379;-65
2023/06/24 02:06:09;;;;;;;8.70;7.90;;;;;;;16.84;100.00;102331.06;5048268;28;20043;-65
2023/06/24 02:08:38;;;;;;;8.65;7.85;;;;;;;16.88;100.00;102328.63;5049672;28;20025;-65
2023/06/24 02:11:04;;;;;;;8.40;7.50;;;;;;;16.87;100.00;102322.25;5049398;28;20036;-65
2023/06/24 02:13:35;;;;;;;8.82;7.05;;;;;;;16.81;100.00;102326.81;5050194;28;20132;-65
2023/06/24 02:16:06;;;;;;;8.45;7.63;;;;;;;16.72;100.00;102327.38;5048193;28;20091;-65
2023/06/24 02:18:32;;;;;;;8.38;7.05;;;;;;;16.62;100.00;102333.47;5048685;28;20021;-65
2023/06/24 02:20:59;;;;;;;7.88;7.07;;;;;;;16.60;100.00;102330.94;5048784;28;20044;-65
2023/06/24 02:23:25;;;;;;;7.63;6.82;;;;;;;16.52;100.00;102320.16;5050556;28;20021;-65
2023/06/24 02:25:51;;;;;;;7.03;6.32;;;;;;;16.51;100.00;102332.34;5048667;28;20035;-65
2023/06/24 02:28:18;;;;;;;8.10;7.30;;;;;;;16.46;100.00;102334.97;5049605;28;20120;-65
2023/06/24 02:30:44;;;;;;;8.60;7.70;;;;;;;16.45;100.00;102333.28;5058018;28;20117;-65
2023/06/24 02:33:11;;;;;;;7.60;6.80;;;;;;;16.35;100.00;102330.22;5056565;28;20033;-65
2023/06/24 02:35:37;;;;;;;7.43;6.63;;;;;;;16.39;100.00;102327.81;5047962;28;20041;-65
2023/06/24 02:38:03;;;;;;;8.15;7.28;;;;;;;16.39;100.00;102327.81;5047879;28;20033;-65
2023/06/24 02:40:29;;;;;;;8.05;7.25;;;;;;;16.38;100.00;102326.97;5061765;22;20064;-65
2023/06/24 02:42:54;;;;;;;7.78;7.05;;;;;;;16.38;100.00;102323.38;5009316;28;20116;-65
2023/06/24 02:45:20;;;;;;;7.95;7.15;;;;;;;16.37;100.00;102333.59;5008292;28;20030;-65
2023/06/24 02:47:47;;;;;;;8.68;7.78;;;;;;;16.33;100.00;102330.44;5015209;28;20041;-65
2023/06/24 02:50:14;;;;;;;8.40;7.60;;;;;;;16.28;100.00;102321.13;5028409;28;20380;-65
2023/06/24 02:52:40;;;;;;;8.90;7.10;;;;;;;16.25;100.00;102325.22;5028883;28;20025;-65
2023/06/24 02:55:07;;;;;;;8.57;7.68;;;;;;;16.19;100.00;102323.38;5013530;28;20032;-65
2023/06/24 02:57:35;;;;;;;8.27;7.47;;;;;;;16.15;100.00;102329.59;5009814;28;20088;-65
2023/06/24 03:00:02;;;;;;;9.05;7.55;;;;;;;16.15;100.00;102324.06;5028626;28;20045;-65
2023/06/24 03:02:28;;;;;;;9.63;7.32;;;;;;;16.13;100.00;102334.56;5029026;28;20029;-65
2023/06/24 03:04:53;;;;;;;7.78;6.97;;;;;;;16.07;100.00;102333.56;5029155;28;20522;-65
2023/06/24 03:07:22;;;;;;;8.05;7.25;;;;;;;16.01;100.00;102335.31;5025367;28;20103;-65
2023/06/24 03:09:48;;;;;;;7.82;7.03;;;;;;;15.95;100.00;102338.16;5019127;28;20048;-65
2023/06/24 03:12:13;;;;;;;8.07;7.00;;;;;;;15.88;100.00;102331.84;5026554;28;21091;-65
2023/06/24 03:14:38;;;;;;;7.53;6.72;;;;;;;15.90;100.00;102340.78;5028610;28;20464;-65
2023/06/24 03:17:04;;;;;;;7.45;6.50;;;;;;;15.90;100.00;102338.84;5017745;28;20096;-65
2023/06/24 03:19:29;;;;;;;7.22;6.28;;;;;;;15.93;100.00;102338.41;5009859;28;20429;-65
2023/06/24 03:21:54;;;;;;;7.72;6.25;;;;;;;15.98;100.00;102352.41;5017896;28;20032;-65
2023/06/24 03:24:20;;;;;;;6.78;6.07;;;;;;;16.02;100.00;102331.47;5023993;28;20041;-65
2023/06/24 03:26:45;;;;;;;6.45;5.75;;;;;;;15.99;100.00;102329.16;5024555;28;20079;-65
2023/06/24 03:29:11;;;;;;;7.57;5.68;;;;;;;15.92;100.00;102330.31;5027588;28;20686;-65
2023/06/24 03:31:37;;;;;;;6.50;5.60;;;;;;;15.87;100.00;102324.63;5013759;28;20084;-64
2023/06/24 03:34:03;;;;;;;6.85;5.80;;;;;;;15.78;100.00;102335.16;5009852;28;20029;-65
2023/06/24 03:36:28;;;;;;;6.88;5.50;;;;;;;15.75;100.00;102336.44;5002533;28;20113;-65
2023/06/24 03:38:53;;;;;;;7.20;5.55;;;;;;;15.72;100.00;102322.22;5002316;28;20029;-65
2023/06/24 03:41:19;;;;;;;6.75;6.00;;;;;;;15.77;100.00;102330.69;5028743;28;20714;-65
2023/06/24 03:43:44;;;;;;;6.70;5.85;;;;;;;15.80;100.00;102335.75;5011019;28;20590;-65
2023/06/24 03:46:13;;;;;;;6.57;5.88;;;;;;;15.79;100.00;102342.38;5012016;28;20079;-65
2023/06/24 03:48:39;;;;;;;9.00;6.50;;;;;;;15.79;100.00;102334.06;5027661;28;20032;-65
2023/06/24 03:51:04;;;;;;;7.75;6.28;;;;;;;15.82;100.00;102339.16;5020239;28;20647;-65
2023/06/24 03:53:29;;;;;;;7.22;6.30;;;;;;;15.81;100.00;102337.44;5017472;28;20056;-65
2023/06/24 03:55:55;;;;;;;7.13;6.05;;;;;;;15.81;100.00;102341.09;5021352;28;20068;-64
2023/06/24 03:58:21;;;;;;;7.07;6.38;;;;;;;15.76;100.00;102345.59;5028379;28;20052;-65
2023/06/24 04:00:49;;;;;;;6.82;6.13;;;;;;;15.75;100.00;102341.97;5024818;28;20491;-65
2023/06/24 04:03:14;;;;;;;;;;;;;;;15.92;100.00;102347.78;5009348;28;20026;-65
2023/06/24 04:05:39;;;;;;;7.53;6.65;;;;;;;15.81;100.00;102348.53;5010100;28;19921;-64
2023/06/24 04:08:06;;;;;;;7.95;7.15;;;;;;;15.85;100.00;102354.47;5003902;28;20584;-65
2023/06/24 04:10:32;;;;;;;8.48;7.57;;;;;;;15.88;100.00;102351.25;5008643;28;20476;-65
2023/06/24 04:12:57;;;;;;;9.05;8.15;;;;;;;15.91;100.00;102346.06;5008917;28;20022;-65
2023/06/24 04:15:23;;;;;;;9.80;8.80;;;;;;;15.96;100.00;102353.69;5027500;28;20064;-65
2023/06/24 04:17:48;;;;;;;10.00;9.00;;;;;;;15.98;100.00;102355.19;5024345;28;20064;-65
2023/06/24 04:20:14;;;;;;;10.20;9.10;;;;;;;16.04;100.00;102340.38;5025199;28;20696;-65
2023/06/24 04:22:41;;;;;;;10.05;9.05;;;;;;;16.13;100.00;102348.41;5023785;28;20518;-65
2023/06/24 04:25:07;;;;;;;10.35;9.35;;;;;;;16.14;100.00;102361.19;5028319;28;20033;-65
2023/06/24 04:27:33;;;;;;;10.63;9.60;;;;;;;16.18;100.00;102356.88;5025569;28;20076;-65
2023/06/24 04:29:59;;;;;;;10.45;9.45;;;;;;;16.21;100.00;102354.47;5027566;28;20034;-65
2023/06/24 04:32:24;;;;;;;9.95;9.05;;;;;;;16.20;100.00;102350.00;5023791;28;20120;-65
2023/06/24 04:34:50;;;;;;;10.35;9.35;;;;;;;16.23;100.00;102343.16;5020537;28;20112;-65
2023/06/24 04:37:15;;;;;;;11.05;9.95;;;;;;;16.28;100.00;102351.63;5013346;28;20059;-65
2023/06/24 04:39:43;;;;;;;10.80;9.80;;;;;;;16.28;100.00;102348.88;5014401;28;20843;-65
2023/06/24 04:42:08;;;;;;;10.70;9.70;;;;;;;16.29;100.00;102351.41;5021389;28;20036;-65
2023/06/24 04:44:33;;;;;;;11.65;10.55;;;;;;;16.31;100.00;102348.38;5007799;28;20553;-65
2023/06/24 04:46:59;;;;;;;11.63;10.52;;;;;;;16.32;100.00;102355.63;5018022;28;20053;-65
2023/06/24 04:49:24;;;;;;;12.00;10.90;;;;;;;16.38;100.00;102359.41;5017874;28;20072;-65
2023/06/24 04:51:49;;;;;;;11.95;10.75;;;;;;;16.36;100.00;102356.84;5015819;28;20532;-65
2023/06/24 04:54:15;;;;;;;12.00;10.80;;;;;;;16.43;100.00;102357.63;5015935;28;20396;-65
2023/06/24 04:56:41;;;;;;;11.80;10.70;;;;;;;16.46;100.00;102357.16;5015570;28;20037;-65
2023/06/24 04:59:06;;;;;;;11.63;10.52;;;;;;;16.49;100.00;102365.00;5026333;28;20438;-65
2023/06/24 05:01:32;;;;;;;11.70;10.60;;;;;;;16.55;100.00;102360.47;5024931;28;20025;-64
2023/06/24 05:03:57;;;;;;;11.50;10.50;;;;;;;16.59;100.00;102365.31;5014735;28;20087;-65
2023/06/24 05:06:23;;;;;;;11.43;10.32;;;;;;;16.61;100.00;102363.13;5025059;28;20379;-65
2023/06/24 05:08:48;;;;;;;11.93;10.73;;;;;;;16.64;100.00;102358.22;5018590;28;20037;-65
2023/06/24 05:11:13;;;;;;;11.60;10.40;;;;;;;16.67;100.00;102358.56;5027348;28;20017;-65
2023/06/24 05:13:40;;;;;;;11.40;10.23;;;;;;;16.71;100.00;102364.50;4997504;28;20030;-65
2023/06/24 05:16:05;;;;;;;11.10;10.05;;;;;;;16.80;100.00;102354.81;5007136;28;20431;-65
2023/06/24 05:18:30;;;;;;;11.90;10.70;;;;;;;16.85;100.00;102354.94;5024071;28;20033;-65
2023/06/24 05:20:56;;;;;;;11.63;10.52;;;;;;;16.89;100.00;102350.63;5017043;28;20025;-65
2023/06/24 05:23:21;;;;;;;12.57;11.35;;;;;;;16.97;100.00;102347.50;5027449;28;20028;-64
2023/06/24 05:25:47;;;;;;;12.40;11.15;;;;;;;16.97;100.00;102353.03;5026980;28;20047;-65
2023/06/24 05:28:12;;;;;;;12.38;11.18;;;;;;;17.02;100.00;102353.19;5026458;28;20040;-65
2023/06/24 05:30:38;;;;;;;12.90;11.60;;;;;;;17.11;100.00;102351.75;5007245;28;20033;-65
2023/06/24 05:33:03;;;;;;;12.52;11.27;;;;;;;17.14;100.00;102356.00;5013875;28;20022;-65
2023/06/24 05:35:28;;;;;;;12.27;11.00;;;;;;;17.23;100.00;102356.47;5011615;28;20108;-65
2023/06/24 05:37:53;;;;;;;11.43;10.00;;;;;;;17.27;100.00;102358.56;5007364;28;20061;-65
2023/06/24 05:40:19;;;;;;;13.07;11.32;;;;;;;17.33;100.00;102362.28;5020866;28;20299;-64
2023/06/24 05:42:44;;;;;;;13.02;11.10;;;;;;;17.37;100.00;102364.38;5026234;28;20570;-65
2023/06/24 05:45:09;;;;;;;12.63;11.38;;;;;;;17.45;100.00;102363.19;5026167;28;20029;-65
2023/06/24 05:47:35;;;;;;;11.48;10.38;;;;;;;17.49;100.00;102363.56;5014382;28;20029;-65
2023/06/24 05:50:00;;;;;;;12.20;11.00;;;;;;;17.57;100.00;102354.84;5016667;28;20060;-65
2023/06/24 05:52:26;;;;;;;14.35;11.93;;;;;;;17.62;100.00;102355.81;5023634;28;20053;-64
2023/06/24 05:54:51;;;;;;;11.75;10.60;;;;;;;17.75;99.83;102360.34;5021542;28;20036;-65
2023/06/24 05:57:16;;;;;;;12.38;11.18;;;;;;;17.82;99.76;102372.16;5023838;28;20029;-65
2023/06/24 05:59:42;;;;;;;12.73;11.40;;;;;;;17.85;98.21;102365.28;5006814;28;20061;-65
2023/06/24 06:02:07;;;;;;;12.35;11.23;;;;;;;17.90;96.81;102365.41;4991467;28;20084;-65
2023/06/24 06:04:32;;;;;;;12.00;10.80;;;;;;;17.94;96.09;102354.63;5020660;28;20100;-64
2023/06/24 06:06:58;;;;;;;13.25;10.95;;;;;;;17.98;96.01;102365.00;5008201;28;20445;-65
2023/06/24 06:09:23;;;;;;;12.25;11.10;;;;;;;17.99;97.62;102360.28;5021333;28;20041;-65
2023/06/24 06:11:48;;;;;;;11.90;10.70;;;;;;;18.05;97.85;102367.69;5026016;28;20036;-65
2023/06/24 06:14:14;;;;;;;11.15;9.98;;;;;;;18.14;94.29;102358.69;5026132;28;20112;-64
2023/06/24 06:16:39;;;;;;;11.77;10.02;;;;;;;18.21;94.00;102358.59;5009914;28;20530;-64
2023/06/24 06:19:05;;;;;;;11.35;9.35;;;;;;;18.27;94.46;102368.72;5013762;28;20120;-65
2023/06/24 06:21:31;;;;;;;11.50;10.30;;;;;;;18.32;92.52;102368.00;5020185;28;20057;-65
2023/06/24 06:23:56;;;;;;;11.90;10.68;;;;;;;18.34;91.36;102363.84;5023828;28;20084;-65
2023/06/24 06:26:22;;;;;;;11.27;10.07;;;;;;;18.42;92.06;102370.97;5026650;28;20017;-65
2023/06/24 06:28:47;;;;;;;9.68;8.68;;;;;;;18.47;91.88;102373.03;5006340;28;20049;-64
2023/06/24 06:31:13;;;;;;;10.05;8.85;;;;;;;18.49;90.90;102370.84;5014816;28;20029;-64
2023/06/24 06:33:38;;;;;;;10.27;8.73;;;;;;;18.54;91.11;102377.34;5021264;28;20423;-65
2023/06/24 06:36:04;;;;;;;11.02;8.70;;;;;;;18.58;90.20;102380.50;5021740;28;20137;-65
2023/06/24 06:38:29;;;;;;;10.00;9.00;;;;;;;18.63;87.60;102380.59;5014134;28;20030;-65
2023/06/24 06:40:54;;;;;;;10.93;8.05;;;;;;;18.68;86.93;102380.72;5006269;28;20487;-65
2023/06/24 06:43:21;;;;;;;9.27;8.07;;;;;;;18.73;85.76;102383.63;5010143;28;20032;-65
2023/06/24 06:45:47;;;;;;;8.80;7.30;;;;;;;18.78;86.19;102382.88;5008224;28;20045;-65
2023/06/24 06:48:12;;;;;;;9.80;8.23;;;;;;;18.83;85.63;102380.19;5009979;28;20022;-65
2023/06/24 06:50:37;;;;;;;8.80;7.47;;;;;;;18.88;85.46;102381.13;5009587;28;20429;-65
2023/06/24 06:53:02;;;;;;;10.57;8.00;;;;;;;18.93;84.68;102385.94;5009710;28;20030;-65
2023/06/24 06:55:29;;;;;;;8.25;7.05;;;;;;;18.99;84.49;102387.72;5009832;28;20113;-64
2023/06/24 06:57:55;;;;;;;10.50;7.38;;;;;;;19.05;84.88;102388.66;5025059;28;20117;-64
2023/06/24 07:00:20;;;;;;;9.63;7.22;;;;;;;19.10;85.67;102395.19;5002817;28;20066;-64
2023/06/24 07:02:45;;;;;;;9.38;7.55;;;;;;;19.15;84.50;102392.47;5009590;28;20060;-64
2023/06/24 07:05:11;;;;;;;8.90;7.70;;;;;;;19.26;85.51;102396.31;5008882;28;20076;-64
2023/06/24 07:07:39;;;;;;;9.35;7.13;;;;;;;19.29;82.95;102398.59;5008158;28;20033;-64
2023/06/24 07:10:05;;;;;;;9.00;7.90;;;;;;;19.40;83.44;102403.25;5005713;28;20524;-64
2023/06/24 07:12:31;;;;;;;9.45;7.45;;;;;;;19.50;83.06;102396.16;5016611;28;20034;-65
2023/06/24 07:14:56;;;;;;;8.15;6.97;;;;;;;19.53;82.62;102406.81;5007301;28;20052;-64
2023/06/24 07:17:21;;;;;;;9.63;6.90;;;;;;;19.57;81.04;102408.84;5007151;28;20068;-64
2023/06/24 07:19:47;;;;;;;8.50;7.53;;;;;;;19.68;81.05;102399.56;5005397;28;20264;-63
2023/06/24 07:22:13;;;;;;;8.50;7.60;;;;;;;19.81;81.50;102405.88;5007846;28;20029;-64
2023/06/24 07:24:39;;;;;;;8.45;7.07;;;;;;;19.81;78.34;102409.53;5015011;28;20108;-64
2023/06/24 07:27:04;;;;;;;8.63;6.95;;;;;;;19.83;77.93;102410.13;5017772;28;20556;-64
2023/06/24 07:29:30;;;;;;;8.82;7.22;;;;;;;19.88;79.51;102406.56;5021451;28;20033;-64
2023/06/24 07:31:55;;;;;;;8.52;7.60;;;;;;;20.00;80.57;102406.47;5009055;28;20072;-65
2023/06/24 07:34:20;;;;;;;9.43;7.93;;;;;;;20.08;79.03;102398.50;5008198;28;20104;-64
2023/06/24 07:36:46;;;;;;;8.85;7.80;;;;;;;20.12;80.50;102399.69;5021137;28;20120;-64
2023/06/24 07:39:11;;;;;;;10.48;7.80;;;;;;;20.15;78.37;102401.09;5008356;28;20053;-65
2023/06/24 07:41:36;;;;;;;8.40;6.95;;;;;;;20.27;78.64;102399.03;5007691;28;20383;-63
2023/06/24 07:44:02;;;;;;;8.18;6.10;;;;;;;20.40;76.47;102398.66;5021095;28;20023;-65
2023/06/24 07:46:27;;;;;;;7.30;5.63;;;;;;;20.40;71.46;102395.88;5021898;28;20029;-64
2023/06/24 07:48:53;;;;;;;7.35;5.88;;;;;;;20.49;74.19;102395.47;5028390;28;20037;-64
2023/06/24 07:51:18;;;;;;;8.40;5.68;;;;;;;20.58;75.08;102400.34;5027379;28;20461;-64
2023/06/24 07:53:44;;;;;;;7.20;5.50;;;;;;;20.62;75.23;102398.69;5021536;28;20045;-64
2023/06/24 07:56:09;;;;;;;6.50;4.68;;;;;;;20.64;70.59;102388.13;5008460;28;20480;-64
2023/06/24 07:58:35;;;;;;;6.57;5.25;;;;;;;20.67;70.78;102398.75;5008662;28;20026;-65
2023/06/24 08:01:00;;;;;;;7.13;4.93;;;;;;;20.73;70.21;102400.53;5008120;28;20093;-63
2023/06/24 08:03:26;;;;;;;7.65;4.68;;;;;;;20.86;70.42;102396.47;5008442;28;20635;-63
2023/06/24 08:05:51;;;;;;;7.10;6.05;;;;;;;20.92;70.01;102395.41;5008347;28;20026;-63
2023/06/24 08:08:19;;;;;;;5.65;4.35;;;;;;;21.05;67.52;102399.75;5008194;28;20057;-63
2023/06/24 08:10:45;;;;;;;;;;;;;;;21.11;72.85;102397.84;5008599;28;20161;-63
2023/06/24 08:13:10;;;;;;;6.18;4.45;;;;;;;21.18;67.50;102392.88;5007805;28;20403;-63
2023/06/24 08:15:35;;;;;;;7.20;5.07;;;;;;;21.21;68.89;102396.00;5008238;28;20404;-63
2023/06/24 08:18:01;;;;;;;5.82;4.30;;;;;;;21.30;69.77;102393.59;5008028;28;20076;-63
2023/06/24 08:20:26;;;;;;;7.00;4.30;;;;;;;21.36;70.36;102386.09;4989266;28;20025;-63
2023/06/24 08:22:51;;;;;;;7.72;5.03;;;;;;;21.47;68.33;102390.66;5007978;28;20018;-62
2023/06/24 08:25:17;;;;;;;5.22;3.38;;;;;;;21.53;63.49;102394.34;5006651;28;20726;-63
2023/06/24 08:27:46;;;;;;;5.47;3.58;;;;;;;21.63;62.27;102386.03;5006827;28;20108;-63
2023/06/24 08:30:12;;;;;;;4.90;3.28;;;;;;;21.74;61.35;102385.00;5006052;28;20026;-63
2023/06/24 08:32:38;;;;;;;5.10;3.00;;;;;;;21.79;61.40;102387.00;5007191;28;20139;-63
2023/06/24 08:35:04;;;;;;;4.97;3.30;;;;;;;21.83;61.38;102389.00;5004809;28;20026;-64
2023/06/24 08:37:29;;;;;;;5.22;3.13;;;;;;;21.89;61.56;102375.88;5008007;28;20481;-64
2023/06/24 08:39:54;;;;;;;6.77;3.43;;;;;;;21.94;61.91;102381.50;5007425;28;20099;-62
2023/06/24 08:42:20;;;;;;;5.25;3.10;;;;;;;22.01;61.70;102379.31;5007363;28;20277;-64
2023/06/24 08:44:45;;;;;;;5.10;3.10;;;;;;;22.04;61.13;102367.56;5007229;28;20034;-64
2023/06/24 08:47:11;;;;;;;4.70;3.08;;;;;;;22.11;59.96;102379.41;5007479;28;20057;-64
2023/06/24 08:49:55;;;;;;;3.80;2.75;;;;;;;22.17;58.29;102377.47;5006220;28;20026;-66
2023/06/24 08:52:24;;;;;;;3.70;2.20;;;;;;;22.34;59.40;102374.47;5007834;28;20061;-64
2023/06/24 08:54:51;;;;;;;3.22;2.28;;;;;;;22.45;56.37;102379.00;5007348;28;20018;-64
2023/06/24 08:57:18;;;;;;;4.80;2.38;;;;;;;22.42;57.09;102372.00;5007194;28;20041;-64
2023/06/24 08:59:43;;;;;;;4.47;2.38;;;;;;;22.58;57.54;102380.47;5007116;28;20711;-64
2023/06/24 09:02:08;;;;;;;3.10;2.20;;;;;;;22.61;58.28;102374.31;5007444;28;20022;-64
2023/06/24 09:04:34;;;;;;;3.60;2.10;;;;;;;22.71;57.38;102378.00;5006677;28;20179;-61
2023/06/24 09:07:00;;;;;;;4.75;2.30;;;;;;;22.75;56.01;102373.50;5007531;28;20030;-62
2023/06/24 09:09:25;;;;;;;3.05;2.20;;;;;;;22.82;56.72;102375.22;5007166;28;20421;-62
2023/06/24 09:11:59;;;;;;;3.08;2.33;;;;;;;22.87;55.00;102376.09;5007518;28;20051;-61
2023/06/24 09:14:26;;;;;;;2.90;2.03;;;;;;;23.02;55.49;102375.31;5007338;28;20022;-63
2023/06/24 09:16:52;;;;;;;3.70;2.10;;;;;;;23.09;55.88;102370.25;5007518;28;20065;-63
2023/06/24 09:19:28;;;;;;;3.90;2.05;;;;;;;23.20;55.48;102371.94;5006463;28;20042;-62
2023/06/24 09:21:53;;;;;;;2.47;2.00;;;;;;;23.35;56.05;102378.69;4988679;28;20073;-62
2023/06/24 09:24:20;;;;;;;3.30;1.80;;;;;;;23.42;55.43;102365.22;5006042;28;20522;-62
2023/06/24 09:26:45;;;;;;;2.83;2.03;;;;;;;23.59;56.59;102359.34;5006174;28;20045;-62
2023/06/24 09:29:14;;;;;;;2.95;2.10;;;;;;;23.59;53.16;102356.53;5005114;28;20022;-62
2023/06/24 09:31:52;;;;;;;2.85;1.85;;;;;;;23.80;57.27;102355.41;5006390;28;20032;-63
2023/06/24 09:34:17;;;;;;;;;;;;;;;24.06;57.98;102347.78;5005801;28;20026;-63
2023/06/24 09:36:51;;;;;;;2.90;2.17;;;;;;;24.48;52.00;102344.56;5006440;28;19914;-62
2023/06/24 09:39:16;;;;;;;3.28;2.20;;;;;;;24.65;50.63;102332.94;5006044;28;20050;-62
2023/06/24 09:41:42;;;;;;;4.97;2.45;;;;;;;25.53;50.52;102337.63;5007167;28;20032;-62
2023/06/24 09:44:11;;;;;;;3.35;2.30;;;;;;;26.80;48.93;102338.13;5005519;28;20361;-61
2023/06/24 09:46:37;;;;;;;3.63;2.22;;;;;;;28.03;42.92;102341.69;5004882;28;20087;-62
2023/06/24 09:49:06;;;;;;;3.83;2.10;;;;;;;29.29;37.30;102339.16;5005607;28;20030;-63
2023/06/24 09:51:38;;;;;;;2.20;1.65;;;;;;;30.96;36.25;102342.03;5006812;28;20026;-63
2023/06/24 09:54:05;;;;;;;4.25;2.50;;;;;;;32.20;32.40;102339.44;5006326;28;20464;-61
2023/06/24 09:56:31;;;;;;;;;;;;;;;33.17;34.70;102338.47;5007018;28;20026;-63
2023/06/24 09:58:57;;;;;;;3.33;1.88;;;;;;;34.40;28.23;102334.66;5005979;28;20434;-63
2023/06/24 10:01:23;;;;;;;2.65;1.85;;;;;;;34.79;26.88;102335.13;5007009;28;20117;-63
2023/06/24 10:03:49;;;;;;;2.97;1.90;;;;;;;35.41;25.76;102333.69;5006534;28;20156;-63
2023/06/24 10:06:14;;;;;;;2.42;1.88;;;;;;;35.89;25.69;102331.75;4988030;28;20484;-62
2023/06/24 10:08:40;;;;;;;3.30;2.08;;;;;;;36.59;25.34;102336.75;5006667;28;20034;-63
2023/06/24 10:11:05;;;;;;;2.83;2.00;;;;;;;36.41;26.70;102335.50;5006146;28;20030;-62
2023/06/24 10:13:30;;;;;;;3.30;2.00;;;;;;;36.44;24.63;102341.31;5006779;28;20169;-63
2023/06/24 10:15:56;;;;;;;3.35;2.00;;;;;;;36.56;25.80;102349.81;5006294;28;20034;-64
2023/06/24 10:18:31;;;;;;;2.25;1.60;;;;;;;36.35;24.84;102340.69;5010725;28;20022;-63
2023/06/24 10:20:56;;;;;;;1.85;1.50;;;;;;;36.82;24.36;102331.16;5009542;28;20049;-62
2023/06/24 10:23:21;;;;;;;2.67;1.40;;;;;;;37.15;23.20;102337.19;5010943;28;20451;-62
2023/06/24 10:25:48;;;;;;;3.27;2.20;;;;;;;36.95;23.96;102338.41;5010252;28;20026;-63
2023/06/24 10:28:13;;;;;;;2.22;1.45;;;;;;;36.88;21.54;102329.66;5010451;28;20283;-63
2023/06/24 10:30:38;;;;;;;2.50;1.65;;;;;;;36.98;24.92;102331.13;5010069;28;20022;-63
2023/06/24 10:33:03;;;;;;;3.13;2.00;;;;;;;36.77;22.95;102331.47;5009852;28;20026;-62
2023/06/24 10:35:34;;;;;;;3.20;1.70;;;;;;;36.68;23.63;102334.53;5009690;28;20092;-62
2023/06/24 10:38:00;;;;;;;2.97;2.20;;;;;;;35.53;24.50;102324.25;5009919;28;20076;-63
2023/06/24 10:40:44;;;;;;;2.72;1.95;;;;;;;34.72;28.30;102317.75;5009561;28;20064;-62
2023/06/24 10:43:26;;;;;;;2.65;2.10;;;;;;;33.81;28.25;102316.00;5010208;28;20061;-63
2023/06/24 10:45:58;;;;;;;3.92;2.13;;;;;;;32.67;31.35;102316.59;5010322;28;20018;-64
2023/06/24 10:48:25;;;;;;;3.40;1.95;;;;;;;31.57;32.55;102315.59;5010285;28;20025;-64
2023/06/24 10:50:50;;;;;;;3.78;1.95;;;;;;;30.50;32.72;102308.59;5009333;28;20107;-62
2023/06/24 10:53:18;;;;;;;3.78;2.00;;;;;;;30.16;36.44;102306.50;4992228;28;20058;-61
2023/06/24 10:55:43;;;;;;;;;;;;;;;30.21;37.03;102315.72;5010415;28;20018;-62
2023/06/24 10:58:14;;;;;;;4.40;2.40;;;;;;;29.60;37.12;102311.78;5009224;28;19920;-64
2023/06/24 11:00:40;;;;;;;3.30;2.25;;;;;;;29.40;35.27;102307.47;5009429;28;20273;-63
2023/06/24 11:03:16;;;;;;;3.83;2.40;;;;;;;29.25;37.94;102301.34;5009954;28;20034;-64
2023/06/24 11:05:43;;;;;;;3.72;2.78;;;;;;;29.06;38.14;102296.75;5008927;28;20030;-62
2023/06/24 11:08:09;;;;;;;4.05;2.67;;;;;;;29.19;44.04;102295.81;5009786;28;20022;-64
2023/06/24 11:10:45;;;;;;;4.47;2.53;;;;;;;29.25;40.19;102302.22;5010025;28;20057;-62
2023/06/24 11:13:11;;;;;;;4.47;2.63;;;;;;;29.21;38.37;102295.50;5006125;28;20056;-63
2023/06/24 11:15:38;;;;;;;4.03;2.53;;;;;;;29.04;39.79;102290.56;5018116;28;20682;-63
2023/06/24 11:18:06;;;;;;;4.37;2.70;;;;;;;29.08;36.98;102282.25;5028652;28;20460;-63